Thursday, January 18, 2018, 8:57 PM EST

KW99, Petersburg, Grant County Airport

Location: Petersburg, WV, United States Lat: 38.983
Local Time: 8:57 PM EST ( 1:57 GMT) Lon: -79.133
Time Zone: US/Eastern Elev: 961 ft

Show me the last for .
Show Decoded

2018-01-18 20:30 METAR KW99 190130Z AUTO 25018G23KT 10SM CLR 03/M14 A3013 RMK AO2 T00291138 =
2018-01-18 20:10 METAR KW99 190110Z AUTO 25012G24KT 210V280 10SM CLR 03/M14 A3013 RMK AO2
                 T00271145 =
2018-01-18 19:50 METAR KW99 190050Z AUTO 24015G26KT 10SM CLR 03/M16 A3013 RMK AO2 T00281161 =
2018-01-18 19:30 METAR KW99 190030Z AUTO 25013G20KT 220V290 10SM CLR 03/M18 A3012 RMK AO2
                 T00311180 =
2018-01-18 19:10 METAR KW99 190010Z AUTO 25014G18KT 10SM CLR 03/M17 A3012 RMK AO2 T00281175 =
2018-01-18 18:50 METAR KW99 182350Z AUTO 24012G20KT 10SM CLR 03/M18 A3011 RMK AO2 T00341182 10058
                 20027 =
2018-01-18 18:30 METAR KW99 182330Z AUTO 25008G17KT 210V280 10SM CLR 03/M18 A3011 RMK AO2
                 T00331178 =
2018-01-18 18:10 METAR KW99 182310Z AUTO 23010G21KT 10SM CLR 04/M18 A3010 RMK AO2 T00351178 =
2018-01-18 17:50 METAR KW99 182250Z AUTO 25006KT 10SM CLR 03/M17 A3010 RMK AO2 T00331172 =
2018-01-18 17:30 METAR KW99 182230Z AUTO 21009G15KT 10SM CLR 04/M17 A3009 RMK AO2 T00381175 =
2018-01-18 17:10 METAR KW99 182210Z AUTO 19010KT 10SM CLR 04/M17 A3008 RMK AO2 T00421173 =
2018-01-18 16:50 METAR KW99 182150Z AUTO 25005G19KT 10SM CLR 05/M17 A3007 RMK AO2 T00461169 =
2018-01-18 16:30 METAR KW99 182130Z AUTO 00000KT 10SM CLR 05/M17 A3006 RMK AO2 T00541173 =
2018-01-18 16:10 METAR KW99 182110Z AUTO 23008G17KT 10SM CLR 06/M18 A3007 RMK AO2 T00571176 =
2018-01-18 15:50 METAR KW99 182050Z AUTO 19012G22KT 10SM CLR 06/M17 A3006 RMK AO2 T00581168 =
2018-01-18 15:30 METAR KW99 182030Z AUTO 22009G14KT 10SM CLR 06/M17 A3006 RMK AO2 T00551168 =
2018-01-18 15:10 METAR KW99 182010Z AUTO 22012G18KT 10SM CLR 05/M16 A3006 RMK AO2 T00521163 =
2018-01-18 14:50 METAR KW99 181950Z AUTO 25012G21KT 10SM CLR 05/M15 A3006 RMK AO2 T00521148 =
2018-01-18 14:30 METAR KW99 181930Z AUTO 24012KT 10SM CLR 05/M15 A3007 RMK AO2 T00461147 =
2018-01-18 14:10 METAR KW99 181910Z AUTO 26015G23KT 10SM CLR 04/M14 A3007 RMK AO2 T00411140 =
2018-01-18 13:50 METAR KW99 181850Z AUTO 26014G25KT 10SM CLR 04/M14 A3008 RMK AO2 T00401136 =
2018-01-18 13:30 METAR KW99 181830Z AUTO 25021G28KT 10SM CLR 04/M14 A3007 RMK AO2 T00381138 =
2018-01-18 13:10 METAR KW99 181810Z AUTO 26022G26KT 10SM CLR 03/M13 A3008 RMK AO2 T00271132 =
2018-01-18 12:50 METAR KW99 181750Z AUTO 26017G22KT 10SM CLR 03/M14 A3011 RMK AO2 T00321137 10032
                 21163 =
2018-01-18 12:30 METAR KW99 181730Z AUTO 26014G19KT 10SM CLR 03/M14 A3012 RMK AO2 T00271138 =
2018-01-18 12:10 METAR KW99 181710Z AUTO 25007G18KT 210V280 10SM CLR 02/M14 A3013 RMK AO2
                 T00201139 =
2018-01-18 11:50 METAR KW99 181650Z AUTO 15009KT 10SM CLR 00/M14 A3015 RMK AO2 T00011138 =
2018-01-18 11:30 METAR KW99 181630Z AUTO 16006KT 10SM CLR 00/M14 A3016 RMK AO2 T10051141 =
2018-01-18 11:10 METAR KW99 181610Z AUTO 19008KT 10SM CLR M01/M14 A3018 RMK AO2 T10111142 =
2018-01-18 10:50 METAR KW99 181550Z AUTO 19009KT 10SM CLR M02/M14 A3019 RMK AO2 T10161139 =
2018-01-18 10:30 METAR KW99 181530Z AUTO 19007KT 10SM CLR M02/M14 A3019 RMK AO2 T10201145 =
2018-01-18 10:10 METAR KW99 181510Z AUTO 27006KT 10SM CLR M02/M14 A3020 RMK AO2 T10181142 =
2018-01-18 09:50 METAR KW99 181450Z AUTO 26011G31KT 10SM CLR M02/M15 A3021 RMK AO2 T10241146 =
2018-01-18 09:30 METAR KW99 181430Z AUTO 25013G21KT 10SM CLR M04/M15 A3021 RMK AO2 T10421146 =
2018-01-18 09:10 METAR KW99 181410Z AUTO 00000KT 10SM CLR M11/M14 A3022 RMK AO2 T11121139 =
2018-01-18 08:50 METAR KW99 181350Z AUTO 13003KT 10SM CLR M13/M16 A3021 RMK AO2 =
2018-01-18 08:30 METAR KW99 181330Z AUTO 00000KT 10SM CLR M13/M15 A3021 RMK AO2 T11321154 =
2018-01-18 08:10 METAR KW99 181310Z AUTO 00000KT 10SM CLR M14/M16 A3021 RMK AO2 T11381162 =
2018-01-18 07:50 METAR KW99 181250Z AUTO 00000KT 10SM CLR M15/M17 A3021 RMK AO2 T11551175 =
2018-01-18 07:30 METAR KW99 181230Z AUTO 10004KT 10SM CLR M16/M18 A3021 RMK AO2 T11621182 =
2018-01-18 07:10 METAR KW99 181210Z AUTO 10003KT 10SM CLR M16/M18 A3021 RMK AO2 T11611181 =
2018-01-18 06:50 METAR KW99 181150Z AUTO 02003KT 10SM CLR M16/M18 A3021 RMK AO2 T11611180 11157
                 21171 =
2018-01-18 06:30 METAR KW99 181130Z AUTO 10003KT 10SM CLR M16/M18 A3021 RMK AO2 T11651183 =
2018-01-18 06:10 METAR KW99 181110Z AUTO 00000KT 10SM CLR M16/M18 A3020 RMK AO2 T11651182 =
2018-01-18 05:50 METAR KW99 181050Z AUTO 00000KT 10SM CLR M17/M18 A3020 RMK AO2 T11671185 =
2018-01-18 05:30 METAR KW99 181030Z AUTO 00000KT 10SM CLR M17/M18 A3021 RMK AO2 =
2018-01-18 05:10 METAR KW99 181010Z AUTO 00000KT 7SM CLR M16/M18 A3021 RMK AO2 T11631181 =
2018-01-18 04:50 METAR KW99 180950Z AUTO 00000KT 10SM CLR M16/M18 A3021 RMK AO2 T11651181 =
2018-01-18 04:30 METAR KW99 180930Z AUTO 00000KT 7SM CLR M16/M17 A3022 RMK AO2 T11601175 =
2018-01-18 04:10 METAR KW99 180910Z AUTO 11003KT 10SM CLR M16/M18 A3023 RMK AO2 T11621178 =
2018-01-18 03:50 METAR KW99 180850Z AUTO 00000KT 10SM CLR M17/M18 A3024 RMK AO2 T11671184 =
2018-01-18 03:30 METAR KW99 180830Z AUTO 00000KT 10SM CLR M17/M18 A3026 RMK AO2 T11661183 =
2018-01-18 03:10 METAR KW99 180810Z AUTO 00000KT 10SM CLR M17/M18 A3026 RMK AO2 T11671182 =
2018-01-18 02:50 METAR KW99 180750Z AUTO 00000KT 10SM CLR M17/M19 A3027 RMK AO2 T11691186 =
2018-01-18 02:30 METAR KW99 180730Z AUTO 00000KT 10SM CLR M17/M18 A3028 RMK AO2 T11671183 =
2018-01-18 02:10 METAR KW99 180710Z AUTO 00000KT 10SM CLR M16/M18 A3028 RMK AO2 T11631179 =
2018-01-18 01:50 METAR KW99 180650Z AUTO 00000KT 10SM CLR M16/M18 A3029 RMK AO2 T11631181 =
2018-01-18 01:30 METAR KW99 180630Z AUTO 00000KT 10SM CLR M16/M18 A3028 RMK AO2 T11631180 =
2018-01-18 01:10 METAR KW99 180610Z AUTO 00000KT 10SM CLR M16/M18 A3029 RMK AO2 T11621180 =
2018-01-18 00:50 METAR KW99 180550Z AUTO 00000KT 10SM CLR M16/M17 A3029 RMK AO2 T11571175 11092
                 21157 410381157 =
2018-01-18 00:30 METAR KW99 180530Z AUTO 00000KT 10SM CLR M15/M17 A3030 RMK AO2 T11551175 =
2018-01-18 00:10 METAR KW99 180510Z AUTO 00000KT 10SM CLR M14/M16 A3031 RMK AO2 T11441161 =
2018-01-17 23:50 METAR KW99 180450Z AUTO 00000KT 10SM CLR M15/M17 A3032 RMK AO2 T11461172 =
2018-01-17 23:30 METAR KW99 180430Z AUTO 00000KT 10SM CLR M15/M17 A3032 RMK AO2 T11471169 =
2018-01-17 23:10 METAR KW99 180410Z AUTO 00000KT 7SM CLR M14/M17 A3033 RMK AO2 T11421166 =
2018-01-17 22:50 METAR KW99 180350Z AUTO 08003KT 7SM CLR M15/M17 A3033 RMK AO2 T11471167 =
2018-01-17 22:30 METAR KW99 180330Z AUTO 09003KT 10SM CLR M14/M16 A3033 RMK AO2 T11361160 =
2018-01-17 22:10 METAR KW99 180310Z AUTO 00000KT 10SM CLR M13/M16 A3033 RMK AO2 T11311160 =
2018-01-17 21:50 METAR KW99 180250Z AUTO 00000KT 10SM CLR M13/M16 A3033 RMK AO2 T11271157 =
2018-01-17 21:30 METAR KW99 180230Z AUTO 00000KT 10SM CLR M13/M16 A3033 RMK AO2 T11271159 =
2018-01-17 21:10 METAR KW99 180210Z AUTO 00000KT 10SM SCT100 M12/M16 A3033 RMK AO2 T11211157 =

Support USWX by starting your Amazon purchase here.